Time;durP1;ratioP1;P1;durP2;ratioP2;P2;SDS_P1;SDS_P2;PMS_P1;PMS_P2;Temp;Humidity;BMP_temperature;BMP_pressure;BME280_temperature;BME280_humidity;BME280_pressure;Samples;Min_cycle;Max_cycle;Signal;HPM_P1;HPM_P2
2021/04/18 00:02:37;;;;;;;9.38;6.35;;;;;;;10.15;47.12;100635.72;10328872;28;20101;-67
2021/04/18 00:07:38;;;;;;;8.65;6.35;;;;;;;10.07;47.22;100613.22;10330543;28;20460;-66
2021/04/18 00:12:39;;;;;;;6.75;6.05;;;;;;;10.06;47.58;100615.97;10336146;28;20068;-65
2021/04/18 00:17:41;;;;;;;8.75;6.35;;;;;;;10.06;47.45;100627.47;10335779;28;20042;-65
2021/04/18 00:22:43;;;;;;;7.45;6.45;;;;;;;9.96;47.40;100601.66;10333429;28;20057;-65
2021/04/18 00:27:45;;;;;;;10.85;7.28;;;;;;;9.89;48.00;100612.72;10334801;28;20050;-65
2021/04/18 00:32:47;;;;;;;7.30;6.22;;;;;;;9.84;48.04;100606.88;10337752;28;20077;-65
2021/04/18 00:37:49;;;;;;;9.07;6.30;;;;;;;9.86;48.09;100609.41;10339778;28;20500;-66
2021/04/18 00:42:51;;;;;;;9.50;6.93;;;;;;;9.76;48.25;100585.31;10338063;28;20104;-66
2021/04/18 00:47:54;;;;;;;9.13;5.70;;;;;;;9.86;48.23;100606.75;10337610;28;20226;-66
2021/04/18 00:52:55;;;;;;;8.40;6.15;;;;;;;9.82;48.77;100603.50;10332879;28;20050;-64
2021/04/18 00:57:57;;;;;;;6.88;5.78;;;;;;;9.74;48.91;100603.19;10337636;28;20068;-65
2021/04/18 01:02:58;;;;;;;8.63;6.65;;;;;;;9.74;48.70;100600.50;10346724;28;20478;-65
2021/04/18 01:08:03;;;;;;;;;;;;;;;9.78;48.54;100593.19;10346778;28;20092;-65
2021/04/18 01:13:04;;;;;;;8.20;6.70;;;;;;;9.82;48.44;100595.50;10336333;28;19965;-65
2021/04/18 01:18:05;;;;;;;9.68;7.05;;;;;;;9.84;48.20;100585.59;10330259;28;20053;-67
2021/04/18 01:23:06;;;;;;;8.98;6.70;;;;;;;9.75;48.81;100575.63;10330444;28;20054;-66
2021/04/18 01:28:09;;;;;;;11.25;6.53;;;;;;;9.78;48.44;100575.41;10332718;28;20172;-67
2021/04/18 01:33:10;;;;;;;8.85;6.80;;;;;;;9.63;48.72;100549.94;10334213;28;20211;-65
2021/04/18 01:38:11;;;;;;;7.10;6.40;;;;;;;9.77;48.46;100579.03;10335197;28;20057;-64
2021/04/18 01:43:16;;;;;;;10.27;6.65;;;;;;;9.82;48.40;100581.38;10339452;28;20519;-66
2021/04/18 01:48:17;;;;;;;7.25;6.40;;;;;;;9.75;48.50;100565.00;10337086;28;20050;-66
2021/04/18 01:53:19;;;;;;;8.65;6.70;;;;;;;9.86;48.55;100582.84;10343460;28;20045;-64
2021/04/18 01:58:20;;;;;;;8.75;6.45;;;;;;;9.88;48.54;100587.09;10345564;28;20053;-63
2021/04/18 02:03:21;;;;;;;7.65;6.43;;;;;;;9.78;48.74;100577.22;10348102;28;20053;-63
2021/04/18 02:08:22;;;;;;;7.43;6.28;;;;;;;9.85;48.56;100576.69;10339279;28;20053;-64
2021/04/18 02:13:23;;;;;;;10.00;6.97;;;;;;;9.81;48.73;100574.34;10328926;28;20097;-64
2021/04/18 02:18:25;;;;;;;7.40;6.63;;;;;;;9.78;48.60;100566.59;10330997;28;20058;-63
2021/04/18 02:23:26;;;;;;;10.10;7.20;;;;;;;9.86;48.69;100556.25;10331628;28;20050;-65
2021/04/18 02:28:27;;;;;;;8.25;6.93;;;;;;;9.89;48.58;100562.22;10335115;28;20112;-65
2021/04/18 02:33:28;;;;;;;8.50;6.75;;;;;;;9.91;48.45;100567.41;10330001;28;20100;-65
2021/04/18 02:38:29;;;;;;;7.82;6.75;;;;;;;9.88;48.44;100560.50;10331087;28;20050;-64
2021/04/18 02:43:30;;;;;;;9.68;6.80;;;;;;;9.90;48.49;100563.88;10327353;28;20518;-65
2021/04/18 02:48:31;;;;;;;8.30;6.13;;;;;;;9.81;48.51;100553.94;10326124;28;20097;-64
2021/04/18 02:53:32;;;;;;;7.25;6.40;;;;;;;9.89;48.59;100567.53;10326242;28;20057;-64
2021/04/18 02:58:34;;;;;;;9.15;6.50;;;;;;;9.91;48.63;100570.91;10325607;28;20523;-65
2021/04/18 03:03:35;;;;;;;7.05;6.22;;;;;;;9.93;48.73;100565.47;10330263;28;20048;-64
2021/04/18 03:08:37;;;;;;;10.48;7.28;;;;;;;10.03;48.43;100563.00;10326514;28;20424;-65
2021/04/18 03:13:39;;;;;;;7.63;6.50;;;;;;;9.97;48.63;100564.31;10340828;28;20049;-64
2021/04/18 03:18:41;;;;;;;8.23;7.20;;;;;;;9.71;48.88;100526.31;10334004;28;20046;-64
2021/04/18 03:23:42;;;;;;;7.32;6.45;;;;;;;9.96;48.92;100562.59;10331653;28;20073;-64
2021/04/18 03:28:43;;;;;;;9.82;7.05;;;;;;;9.99;48.89;100546.41;10350112;28;20564;-63
2021/04/18 03:33:45;;;;;;;8.57;6.85;;;;;;;9.97;48.63;100569.63;10348635;28;20117;-63
2021/04/18 03:38:46;;;;;;;8.88;8.00;;;;;;;9.79;49.97;100565.63;10351389;28;20260;-64
2021/04/18 03:43:47;;;;;;;8.52;6.88;;;;;;;9.80;50.43;100577.97;10334702;28;20523;-64
2021/04/18 03:48:48;;;;;;;10.23;6.97;;;;;;;9.63;50.94;100560.56;10339367;28;20073;-64
2021/04/18 03:53:49;;;;;;;9.55;7.35;;;;;;;9.55;51.61;100550.50;10337001;28;20038;-64
2021/04/18 03:58:50;;;;;;;9.02;7.18;;;;;;;9.68;52.75;100572.59;10340171;28;20053;-64
2021/04/18 04:03:51;;;;;;;9.25;7.70;;;;;;;9.69;53.36;100568.09;10332744;28;20056;-64
2021/04/18 04:08:53;;;;;;;10.05;7.90;;;;;;;9.71;53.92;100571.50;10319964;28;20052;-65
2021/04/18 04:13:53;;;;;;;9.93;8.35;;;;;;;9.62;54.74;100566.84;10323785;28;20041;-64
2021/04/18 04:18:56;;;;;;;8.63;7.75;;;;;;;9.63;54.83;100571.22;10324020;28;20044;-63
2021/04/18 04:23:57;;;;;;;9.07;7.75;;;;;;;9.52;56.84;100570.16;10337508;28;20054;-65
2021/04/18 04:28:58;;;;;;;10.75;7.88;;;;;;;9.50;57.20;100572.09;10326943;28;20415;-64
2021/04/18 04:33:59;;;;;;;10.20;9.20;;;;;;;9.32;57.44;100552.13;10328951;28;20045;-64
2021/04/18 04:39:00;;;;;;;10.95;8.57;;;;;;;9.46;56.88;100564.44;10382205;23;20060;-68
2021/04/18 04:44:01;;;;;;;11.77;8.82;;;;;;;9.54;57.50;100567.41;10414230;28;20126;-68
2021/04/18 04:49:01;;;;;;;8.82;8.00;;;;;;;9.45;57.67;100568.06;10399297;28;20049;-69
2021/04/18 04:54:03;;;;;;;9.70;8.68;;;;;;;9.50;57.84;100569.44;10380686;28;20069;-69
2021/04/18 04:59:04;;;;;;;9.82;8.15;;;;;;;9.56;57.30;100568.13;10372189;28;20053;-69
2021/04/18 05:04:05;;;;;;;11.07;9.88;;;;;;;9.56;58.12;100560.16;10365293;28;20053;-68
2021/04/18 05:09:06;;;;;;;9.38;8.48;;;;;;;9.53;58.69;100565.69;10373637;28;20111;-68
2021/04/18 05:14:07;;;;;;;11.35;8.45;;;;;;;9.48;58.94;100563.34;10373264;28;20104;-68
2021/04/18 05:19:08;;;;;;;12.50;9.25;;;;;;;9.49;59.51;100565.06;10380394;28;20053;-67
2021/04/18 05:24:09;;;;;;;9.65;8.68;;;;;;;9.60;59.91;100582.91;10394214;28;20550;-68
2021/04/18 05:29:10;;;;;;;11.18;9.77;;;;;;;9.66;60.42;100598.41;10381474;28;20077;-68
2021/04/18 05:34:11;;;;;;;9.85;8.85;;;;;;;9.64;59.95;100599.50;10382071;28;20061;-68
2021/04/18 05:39:12;;;;;;;12.05;10.85;;;;;;;9.54;62.14;100610.75;10363487;28;20057;-68
2021/04/18 05:44:14;;;;;;;13.02;10.45;;;;;;;9.52;62.54;100606.53;10377369;28;20052;-68
2021/04/18 05:49:15;;;;;;;14.18;10.93;;;;;;;9.61;63.12;100600.56;10374161;28;20049;-69
2021/04/18 05:54:16;;;;;;;16.52;13.35;;;;;;;9.65;62.71;100604.72;10371097;28;20053;-69
2021/04/18 05:59:17;;;;;;;13.45;12.05;;;;;;;9.55;64.40;100616.94;10366766;28;20049;-68
2021/04/18 06:04:18;;;;;;;12.65;10.43;;;;;;;9.55;65.38;100606.31;10371499;28;20073;-69
2021/04/18 06:09:19;;;;;;;11.60;9.95;;;;;;;9.69;64.63;100607.97;10372521;28;20518;-68
2021/04/18 06:14:20;;;;;;;10.77;9.77;;;;;;;9.36;64.06;100610.25;10381263;28;20053;-69
2021/04/18 06:19:21;;;;;;;9.93;9.02;;;;;;;9.46;64.41;100601.66;10383636;28;20294;-68
2021/04/18 06:24:22;;;;;;;10.77;9.38;;;;;;;9.54;66.12;100602.78;10413099;28;20065;-70
2021/04/18 06:29:23;;;;;;;11.23;9.77;;;;;;;9.55;67.04;100599.19;10382067;28;20153;-67
2021/04/18 06:34:24;;;;;;;12.57;10.02;;;;;;;9.64;67.04;100604.81;10392360;28;20068;-71
2021/04/18 06:39:25;;;;;;;12.02;10.80;;;;;;;9.62;66.75;100599.56;10398988;28;20103;-69
2021/04/18 06:44:28;;;;;;;10.75;9.32;;;;;;;9.69;65.77;100600.84;10392725;28;20056;-69
2021/04/18 06:49:30;;;;;;;11.13;9.38;;;;;;;9.69;65.90;100607.97;10387332;28;20060;-67
2021/04/18 06:54:31;;;;;;;10.23;9.20;;;;;;;9.68;66.68;100607.16;10375872;28;20229;-68
2021/04/18 07:05:23;;;;;;;11.93;10.35;;;;;;;8.90;70.54;100599.28;10741956;23;20050;-64
2021/04/18 07:10:27;;;;;;;10.82;9.73;;;;;;;9.09;69.54;100583.78;10274050;28;20141;-65
2021/04/18 07:15:40;;;;;;;12.40;9.13;;;;;;;9.23;69.23;100579.31;10274103;28;20050;-64
2021/04/18 07:20:54;;;;;;;11.00;9.88;;;;;;;9.09;71.69;100583.78;10278520;28;20639;-63
2021/04/18 07:25:56;;;;;;;10.83;9.73;;;;;;;9.43;70.79;100592.06;10278431;28;20054;-65
2021/04/18 07:31:02;;;;;;;11.63;10.32;;;;;;;9.71;69.97;100596.28;10277910;28;20481;-65
2021/04/18 07:36:18;;;;;;;10.40;9.23;;;;;;;9.78;69.41;100591.38;10277296;28;20046;-64
2021/04/18 07:41:21;;;;;;;11.93;9.38;;;;;;;9.83;68.25;100599.88;10271987;28;20137;-65
2021/04/18 07:46:22;;;;;;;12.32;11.02;;;;;;;9.91;68.56;100594.00;10275904;28;20054;-64
2021/04/18 07:51:25;;;;;;;13.13;11.18;;;;;;;10.05;67.83;100590.34;10276431;28;20411;-65
2021/04/18 07:56:26;;;;;;;11.73;10.50;;;;;;;10.20;67.53;100581.22;10281050;28;20059;-64
2021/04/18 08:01:27;;;;;;;13.60;9.90;;;;;;;10.55;67.01;100584.91;10274886;28;20109;-66
2021/04/18 08:06:29;;;;;;;11.02;9.07;;;;;;;10.79;65.87;100592.84;10288840;28;20504;-66
2021/04/18 08:11:30;;;;;;;11.15;10.05;;;;;;;10.81;65.83;100590.94;10273852;28;20146;-65
2021/04/18 08:16:32;;;;;;;12.23;9.95;;;;;;;10.87;65.77;100589.59;10297461;28;20042;-64
2021/04/18 08:21:39;;;;;;;13.93;11.63;;;;;;;10.98;66.42;100591.47;10270475;28;20299;-63
2021/04/18 08:26:56;;;;;;;10.75;9.50;;;;;;;11.06;65.96;100591.72;10272435;28;20054;-64
2021/04/18 08:32:07;;;;;;;11.43;9.60;;;;;;;10.74;65.77;100579.06;10288296;28;20169;-64
2021/04/18 08:37:17;;;;;;;10.45;9.23;;;;;;;10.60;66.90;100583.63;10271679;28;20404;-65
2021/04/18 08:42:28;;;;;;;11.75;9.77;;;;;;;10.93;67.36;100598.00;10272224;28;20117;-63
2021/04/18 08:47:32;;;;;;;11.75;10.48;;;;;;;11.00;66.22;100597.53;10276620;28;20050;-65
2021/04/18 08:52:34;;;;;;;11.25;9.90;;;;;;;11.17;65.07;100604.19;10273669;28;20134;-64
2021/04/18 08:57:36;;;;;;;11.70;10.45;;;;;;;11.19;65.52;100603.13;10275208;28;20383;-64
2021/04/18 09:02:37;;;;;;;13.45;11.00;;;;;;;11.18;64.99;100590.75;10272641;28;20137;-65
2021/04/18 09:07:43;;;;;;;11.95;10.48;;;;;;;11.35;65.57;100610.78;10270646;28;20129;-66
2021/04/18 09:12:45;;;;;;;12.05;10.20;;;;;;;11.29;66.26;100600.59;10268957;28;20058;-67
2021/04/18 09:17:46;;;;;;;12.88;10.13;;;;;;;11.26;65.87;100617.69;10266701;28;20133;-64
2021/04/18 09:22:48;;;;;;;11.20;9.45;;;;;;;10.90;66.28;100616.88;10276861;28;20050;-65
2021/04/18 09:27:54;;;;;;;12.60;9.82;;;;;;;10.54;67.74;100600.06;10266328;28;20631;-66
2021/04/18 09:32:59;;;;;;;12.27;9.70;;;;;;;10.79;68.14;100603.50;10260123;28;20066;-67
2021/04/18 09:38:04;;;;;;;13.25;10.85;;;;;;;11.05;68.53;100606.00;10264589;28;20556;-65
2021/04/18 09:43:08;;;;;;;11.93;10.63;;;;;;;11.06;67.48;100597.03;10269433;28;20046;-66
2021/04/18 09:48:18;;;;;;;12.98;10.63;;;;;;;11.20;67.31;100599.50;10263830;28;20306;-67
2021/04/18 09:53:25;;;;;;;10.65;9.63;;;;;;;11.36;67.68;100606.28;10285186;28;20584;-67
2021/04/18 09:58:28;;;;;;;11.88;10.57;;;;;;;11.31;67.57;100610.16;10267085;28;20058;-65
2021/04/18 10:03:37;;;;;;;12.85;9.90;;;;;;;11.20;67.16;100583.50;10276145;28;20054;-67
2021/04/18 10:08:40;;;;;;;12.43;11.13;;;;;;;11.25;67.47;100605.31;10276484;28;20514;-64
2021/04/18 10:13:45;;;;;;;12.18;10.93;;;;;;;11.32;68.21;100601.19;10299455;28;20347;-65
2021/04/18 10:19:17;;;;;;;12.23;10.88;;;;;;;11.39;69.01;100606.06;10283018;28;20089;-66
2021/04/18 10:24:43;;;;;;;13.10;11.55;;;;;;;11.42;67.71;100600.47;10276062;28;20042;-66
2021/04/18 10:29:45;;;;;;;12.15;10.88;;;;;;;11.49;68.04;100596.38;10280068;28;20038;-67
2021/04/18 10:34:50;;;;;;;13.30;11.60;;;;;;;11.51;68.59;100597.09;10274144;28;20420;-66
2021/04/18 10:39:52;;;;;;;12.55;11.25;;;;;;;11.58;67.59;100573.47;10276896;28;20102;-66
2021/04/18 10:44:52;;;;;;;12.25;11.02;;;;;;;12.12;66.07;100587.84;10281580;28;20073;-65
2021/04/18 10:49:53;;;;;;;11.38;9.80;;;;;;;12.57;64.62;100590.34;10273481;28;20085;-66
2021/04/18 10:54:54;;;;;;;11.50;10.13;;;;;;;12.66;64.34;100576.22;10270851;28;20057;-66
2021/04/18 10:59:59;;;;;;;12.10;10.82;;;;;;;12.91;64.19;100564.31;10273763;28;20039;-67
2021/04/18 11:05:00;;;;;;;10.93;8.75;;;;;;;13.52;60.65;100562.66;10274492;28;20104;-65
2021/04/18 11:10:01;;;;;;;8.32;7.57;;;;;;;13.85;58.51;100567.84;10291307;28;20105;-65
2021/04/18 11:15:04;;;;;;;10.25;9.00;;;;;;;13.73;58.06;100554.56;10277732;28;20173;-67
2021/04/18 11:20:11;;;;;;;9.50;8.15;;;;;;;13.71;59.00;100556.53;10276468;28;20228;-66
2021/04/18 11:25:13;;;;;;;11.30;9.02;;;;;;;13.25;59.06;100560.53;10271639;28;20485;-67
2021/04/18 11:30:16;;;;;;;10.98;7.75;;;;;;;12.73;62.00;100540.00;10273656;28;20138;-67
2021/04/18 11:35:17;;;;;;;8.63;7.78;;;;;;;12.64;61.66;100562.16;10273354;28;20058;-65
2021/04/18 11:40:21;;;;;;;9.25;8.23;;;;;;;12.55;60.93;100562.94;10277687;28;20073;-64
2021/04/18 11:45:22;;;;;;;9.85;8.70;;;;;;;13.33;58.43;100536.66;10278852;28;20105;-65
2021/04/18 11:50:25;;;;;;;10.38;8.98;;;;;;;14.80;53.77;100552.94;10279412;28;20047;-66
2021/04/18 11:55:26;;;;;;;9.57;7.97;;;;;;;16.60;48.62;100540.84;10275877;28;20760;-65
2021/04/18 12:00:27;;;;;;;11.13;9.85;;;;;;;21.56;38.50;100528.88;10269032;28;21221;-66
2021/04/18 12:05:31;;;;;;;8.65;7.13;;;;;;;21.61;36.09;100514.78;10247101;28;20076;-66
2021/04/18 12:10:32;;;;;;;8.60;7.22;;;;;;;20.23;36.76;100533.84;10267012;28;20057;-66
2021/04/18 12:15:33;;;;;;;8.60;7.78;;;;;;;20.30;37.16;100515.06;10267892;28;20050;-67
2021/04/18 12:20:34;;;;;;;9.85;6.85;;;;;;;20.88;36.22;100522.69;10269230;28;20138;-65
2021/04/18 12:25:36;;;;;;;9.13;7.43;;;;;;;21.43;36.03;100518.69;10268605;28;20062;-66
2021/04/18 12:30:40;;;;;;;7.57;6.88;;;;;;;19.72;37.81;100515.38;10269681;28;20401;-64
2021/04/18 12:35:41;;;;;;;7.75;6.95;;;;;;;19.13;40.06;100525.78;10285225;28;20562;-66
2021/04/18 12:40:42;;;;;;;8.23;7.47;;;;;;;18.66;40.04;100520.09;10272663;28;20146;-65
2021/04/18 12:45:44;;;;;;;7.72;6.97;;;;;;;18.43;40.50;100528.00;10268270;28;20106;-65
2021/04/18 12:50:45;;;;;;;9.35;8.27;;;;;;;17.03;42.95;100516.78;10270607;28;20058;-65
2021/04/18 12:55:46;;;;;;;8.98;8.00;;;;;;;16.24;44.61;100508.66;10274561;28;20051;-65
2021/04/18 13:00:47;;;;;;;8.55;7.72;;;;;;;15.76;45.74;100517.00;10277880;28;20062;-65
2021/04/18 13:05:49;;;;;;;8.63;7.72;;;;;;;16.43;44.34;100517.53;10279474;28;20504;-67
2021/04/18 13:10:51;;;;;;;8.77;7.78;;;;;;;15.92;46.20;100511.00;10279006;28;20080;-65
2021/04/18 13:15:52;;;;;;;9.35;8.55;;;;;;;15.85;46.42;100511.63;10272108;28;20053;-65
2021/04/18 13:20:53;;;;;;;8.75;7.95;;;;;;;15.41;46.61;100497.16;10277860;28;20203;-64
2021/04/18 13:25:55;;;;;;;7.53;6.75;;;;;;;15.50;46.74;100486.38;10270755;28;20467;-64
2021/04/18 13:30:56;;;;;;;8.85;7.78;;;;;;;15.42;47.19;100488.97;10275797;28;20921;-63
2021/04/18 13:35:57;;;;;;;7.85;7.00;;;;;;;15.49;46.87;100498.13;10274091;28;20050;-66
2021/04/18 13:40:58;;;;;;;8.20;7.40;;;;;;;15.50;47.71;100497.09;10277196;28;20054;-65
2021/04/18 13:45:59;;;;;;;7.80;7.03;;;;;;;15.74;47.50;100503.75;10280150;28;20372;-64
2021/04/18 13:51:00;;;;;;;8.43;7.03;;;;;;;15.92;46.65;100502.97;10278826;28;20055;-66
2021/04/18 13:56:01;;;;;;;9.65;8.02;;;;;;;16.26;52.17;100489.69;10286367;28;20532;-65
2021/04/18 14:01:02;;;;;;;7.60;6.90;;;;;;;17.29;44.02;100492.56;10281209;28;20100;-65
2021/04/18 14:06:18;;;;;;;12.50;8.90;;;;;;;17.36;43.23;100491.91;10280144;28;20054;-65
2021/04/18 14:11:19;;;;;;;8.63;7.82;;;;;;;17.23;43.05;100485.13;10281216;28;20380;-64
2021/04/18 14:16:20;;;;;;;7.43;6.72;;;;;;;17.09;42.44;100483.88;10276645;28;20125;-64
2021/04/18 14:21:21;;;;;;;8.27;6.80;;;;;;;17.18;43.05;100479.38;10282199;28;20102;-67
2021/04/18 14:26:24;;;;;;;8.10;7.25;;;;;;;17.11;43.22;100475.66;10281157;28;20141;-70
2021/04/18 14:31:26;;;;;;;8.85;7.95;;;;;;;16.96;44.04;100483.47;10276168;28;20496;-65
2021/04/18 14:36:27;;;;;;;7.78;7.07;;;;;;;16.43;44.92;100471.84;10283309;28;20082;-67
2021/04/18 14:41:29;;;;;;;9.45;8.52;;;;;;;15.78;46.68;100467.59;10277994;28;20471;-68
2021/04/18 14:46:34;;;;;;;8.73;7.93;;;;;;;15.54;47.36;100444.84;10277574;28;20085;-65
2021/04/18 14:51:35;;;;;;;8.32;6.72;;;;;;;15.60;47.39;100466.69;10277740;28;20061;-66
2021/04/18 14:56:36;;;;;;;116.28;95.47;;;;;;;15.61;46.83;100465.69;10276103;28;20058;-65
2021/04/18 15:01:37;;;;;;;8.70;7.80;;;;;;;15.60;46.48;100459.50;10275378;28;20134;-65
2021/04/18 15:06:38;;;;;;;7.18;6.47;;;;;;;15.49;47.17;100444.47;10277354;28;20098;-66
2021/04/18 15:11:39;;;;;;;7.65;6.72;;;;;;;15.31;47.73;100457.84;10278797;28;20393;-66
2021/04/18 15:16:40;;;;;;;7.85;7.05;;;;;;;14.85;49.33;100451.53;10276164;28;20047;-65
2021/04/18 15:21:42;;;;;;;10.15;7.20;;;;;;;14.78;49.23;100448.59;10276258;28;20496;-65
2021/04/18 15:26:45;;;;;;;7.85;7.10;;;;;;;14.63;49.47;100425.94;10271035;28;20054;-66
2021/04/18 15:31:50;;;;;;;7.53;6.73;;;;;;;14.26;50.33;100442.75;10275381;28;20051;-66
2021/04/18 15:36:53;;;;;;;7.88;6.53;;;;;;;14.58;49.57;100446.94;10275447;28;20057;-65
2021/04/18 15:41:54;;;;;;;7.80;5.70;;;;;;;14.29;49.30;100442.47;10275231;28;20122;-66
2021/04/18 15:46:55;;;;;;;7.38;6.60;;;;;;;14.13;49.73;100443.91;10276770;28;20066;-65
2021/04/18 15:51:58;;;;;;;6.30;5.70;;;;;;;14.00;49.97;100447.84;10272361;28;20468;-65
2021/04/18 15:56:59;;;;;;;6.43;5.47;;;;;;;14.00;49.75;100437.97;10300920;28;20089;-66
2021/04/18 16:02:03;;;;;;;9.27;7.13;;;;;;;13.78;51.07;100448.00;10275059;28;20420;-66
2021/04/18 16:07:06;;;;;;;8.57;6.30;;;;;;;13.87;50.40;100458.81;10278071;28;20046;-65
2021/04/18 16:12:08;;;;;;;7.00;6.30;;;;;;;14.03;50.20;100450.25;10275817;28;20117;-65
2021/04/18 16:17:10;;;;;;;6.53;5.88;;;;;;;14.05;50.51;100456.28;10272798;28;20141;-65
2021/04/18 16:22:12;;;;;;;7.05;6.35;;;;;;;13.94;50.62;100450.09;10273554;28;20579;-66
2021/04/18 16:27:13;;;;;;;7.88;6.28;;;;;;;13.62;51.22;100431.63;10275153;28;20500;-65
2021/04/18 16:32:14;;;;;;;7.68;6.97;;;;;;;13.58;51.83;100422.19;10271013;28;20327;-65
2021/04/18 16:37:16;;;;;;;8.05;7.07;;;;;;;13.64;51.83;100437.69;10273733;28;20103;-65
2021/04/18 16:42:17;;;;;;;8.95;6.28;;;;;;;13.77;51.71;100442.78;10297819;28;20484;-65
2021/04/18 16:47:18;;;;;;;7.55;6.72;;;;;;;13.78;51.71;100434.59;10270279;28;20125;-66
2021/04/18 16:52:21;;;;;;;7.53;6.78;;;;;;;13.73;51.77;100431.50;10269395;28;20062;-66
2021/04/18 16:57:23;;;;;;;7.43;6.63;;;;;;;13.90;51.92;100458.53;10272719;28;20540;-66
2021/04/18 17:02:25;;;;;;;8.88;7.20;;;;;;;13.96;51.62;100447.28;10283393;28;20150;-65
2021/04/18 17:07:46;;;;;;;7.63;6.85;;;;;;;14.05;51.52;100451.81;10280824;28;20053;-65
2021/04/18 17:12:47;;;;;;;6.80;6.10;;;;;;;13.78;51.67;100460.50;10277130;28;20129;-66
2021/04/18 17:17:48;;;;;;;7.65;6.43;;;;;;;13.67;52.10;100464.16;10273764;28;20042;-65
2021/04/18 17:22:49;;;;;;;7.55;6.25;;;;;;;13.67;52.53;100469.50;10274521;28;20070;-66
2021/04/18 17:27:51;;;;;;;8.48;6.45;;;;;;;13.59;52.31;100456.81;10271293;28;20137;-66
2021/04/18 17:32:53;;;;;;;6.30;5.57;;;;;;;13.08;53.28;100458.63;10271002;28;21525;-66
2021/04/18 17:37:54;;;;;;;6.63;5.97;;;;;;;12.91;53.55;100451.25;10271197;28;20091;-66
2021/04/18 17:42:56;;;;;;;6.40;5.50;;;;;;;12.92;53.91;100466.28;10271464;28;20066;-67
2021/04/18 17:47:57;;;;;;;7.40;6.60;;;;;;;12.95;54.05;100462.50;10276429;28;20050;-66
2021/04/18 17:52:58;;;;;;;7.53;6.72;;;;;;;13.11;53.86;100473.53;10270829;28;20056;-67
2021/04/18 17:57:59;;;;;;;7.22;6.35;;;;;;;13.03;53.31;100468.00;10277567;28;20520;-65
2021/04/18 18:03:01;;;;;;;6.50;5.90;;;;;;;13.00;53.48;100466.47;10274701;28;20049;-67
2021/04/18 18:08:02;;;;;;;7.90;6.55;;;;;;;12.81;54.67;100467.22;10272369;28;20051;-66
2021/04/18 18:13:04;;;;;;;15.85;9.27;;;;;;;12.89;55.53;100470.06;10275657;28;20194;-67
2021/04/18 18:18:05;;;;;;;15.45;8.00;;;;;;;12.86;55.54;100482.84;10275383;28;20120;-67
2021/04/18 18:23:06;;;;;;;9.02;7.55;;;;;;;12.78;55.49;100467.50;10276163;28;20054;-68
2021/04/18 18:28:08;;;;;;;10.75;8.25;;;;;;;12.86;56.16;100481.00;10309756;28;20077;-66
2021/04/18 18:33:09;;;;;;;8.27;7.43;;;;;;;12.83;56.22;100499.97;10322275;28;20084;-67
2021/04/18 18:38:10;;;;;;;9.15;7.38;;;;;;;12.81;55.91;100488.59;10320177;28;20938;-67
2021/04/18 18:43:11;;;;;;;8.98;8.07;;;;;;;12.72;56.39;100495.56;10310781;28;20062;-67
2021/04/18 18:48:12;;;;;;;9.20;8.30;;;;;;;12.69;56.57;100487.81;10308914;28;20065;-68
2021/04/18 18:53:24;;;;;;;10.60;7.85;;;;;;;12.76;56.48;100489.97;10305960;28;20054;-68
2021/04/18 18:58:25;;;;;;;9.10;7.50;;;;;;;12.86;56.22;100496.22;10282499;28;20462;-67
2021/04/18 19:03:27;;;;;;;10.00;8.45;;;;;;;12.86;56.12;100474.84;10284522;28;20046;-68
2021/04/18 19:08:28;;;;;;;9.98;8.88;;;;;;;12.94;56.08;100487.53;10278680;28;20141;-68
2021/04/18 19:13:29;;;;;;;9.55;8.65;;;;;;;13.04;56.30;100499.09;10281903;28;20059;-66
2021/04/18 19:18:30;;;;;;;9.65;8.60;;;;;;;12.98;56.08;100487.13;10279420;28;20513;-69
2021/04/18 19:23:31;;;;;;;8.73;7.82;;;;;;;12.85;56.16;100483.81;10280853;28;21081;-67
2021/04/18 19:28:33;;;;;;;9.32;8.43;;;;;;;12.91;56.16;100504.69;10273327;28;20058;-66
2021/04/18 19:33:37;;;;;;;9.90;8.90;;;;;;;12.57;57.27;100499.56;10275450;28;20055;-66
2021/04/18 19:38:39;;;;;;;10.05;8.13;;;;;;;12.73;56.86;100507.94;10274846;28;20054;-66
2021/04/18 19:43:40;;;;;;;9.20;8.13;;;;;;;12.71;57.05;100491.19;10274972;28;20509;-66
2021/04/18 19:48:42;;;;;;;10.00;8.23;;;;;;;12.71;57.03;100498.38;10279318;28;20050;-67
2021/04/18 19:53:43;;;;;;;10.18;9.13;;;;;;;12.66;57.06;100490.75;10295948;28;20417;-66
2021/04/18 19:58:44;;;;;;;9.82;8.77;;;;;;;12.64;57.75;100500.72;10274191;28;20046;-65
2021/04/18 20:03:45;;;;;;;12.00;8.68;;;;;;;12.63;57.79;100499.03;10271742;28;20517;-66
2021/04/18 20:08:47;;;;;;;12.23;10.77;;;;;;;12.50;57.76;100495.72;10278938;28;20074;-64
2021/04/18 20:13:49;;;;;;;13.88;11.30;;;;;;;12.56;57.98;100489.84;10275875;28;20050;-65
2021/04/18 20:18:49;;;;;;;9.68;8.25;;;;;;;12.48;58.48;100489.66;10274493;28;20090;-65
2021/04/18 20:23:51;;;;;;;10.52;9.43;;;;;;;12.43;59.30;100495.38;10272579;28;20050;-66
2021/04/18 20:28:52;;;;;;;13.07;10.15;;;;;;;12.35;60.09;100498.69;10283462;28;20116;-65
2021/04/18 20:33:53;;;;;;;10.93;9.43;;;;;;;12.28;61.14;100508.19;10278640;28;20042;-65
2021/04/18 20:38:55;;;;;;;10.77;9.60;;;;;;;12.19;63.04;100519.66;10278202;28;20101;-66
2021/04/18 20:43:56;;;;;;;12.80;10.77;;;;;;;12.19;66.81;100527.66;10276930;28;20117;-65
2021/04/18 20:48:57;;;;;;;12.15;10.95;;;;;;;11.99;67.44;100514.16;10280567;28;20050;-64
2021/04/18 20:53:58;;;;;;;12.98;11.27;;;;;;;12.00;69.46;100531.00;10275062;28;21343;-65
2021/04/18 20:58:59;;;;;;;12.43;11.23;;;;;;;11.94;70.46;100529.66;10277126;28;20051;-67
2021/04/18 21:04:00;;;;;;;12.38;11.05;;;;;;;11.94;71.13;100527.00;10278019;28;20061;-66
2021/04/18 21:09:02;;;;;;;12.50;11.25;;;;;;;11.91;72.06;100529.88;10278155;28;20660;-66
2021/04/18 21:14:03;;;;;;;13.90;10.93;;;;;;;11.91;71.62;100527.22;10268069;28;20141;-66
2021/04/18 21:19:04;;;;;;;13.75;9.35;;;;;;;11.82;71.70;100514.63;10277130;28;20116;-65
2021/04/18 21:24:06;;;;;;;10.98;9.95;;;;;;;11.70;72.46;100518.31;10272974;28;20129;-66
2021/04/18 21:29:07;;;;;;;10.70;9.10;;;;;;;11.67;73.05;100530.06;10279323;28;20144;-65
2021/04/18 21:34:08;;;;;;;10.07;9.07;;;;;;;11.59;73.21;100525.34;10268393;28;20050;-67
2021/04/18 21:39:10;;;;;;;9.10;8.20;;;;;;;11.43;73.46;100516.88;10294026;28;20046;-67
2021/04/18 21:44:17;;;;;;;8.75;7.93;;;;;;;11.42;73.74;100517.84;10294154;28;20145;-68
2021/04/18 21:49:19;;;;;;;9.20;8.30;;;;;;;11.42;73.68;100524.00;10299809;28;20094;-66
2021/04/18 21:54:20;;;;;;;7.70;7.00;;;;;;;11.32;74.14;100523.91;10298986;28;20531;-67
2021/04/18 21:59:22;;;;;;;7.78;6.97;;;;;;;11.38;73.61;100519.06;10300428;28;20054;-66
2021/04/18 22:04:23;;;;;;;7.20;6.50;;;;;;;11.34;73.68;100522.97;10306970;28;20062;-67
2021/04/18 22:09:24;;;;;;;7.22;6.53;;;;;;;11.24;74.00;100523.66;10311641;28;20058;-67
2021/04/18 22:14:25;;;;;;;7.85;7.07;;;;;;;11.22;74.37;100520.28;10309176;28;20428;-67
2021/04/18 22:19:26;;;;;;;7.90;7.10;;;;;;;11.15;74.78;100524.38;10304552;28;20053;-67
2021/04/18 22:24:27;;;;;;;7.95;7.15;;;;;;;11.07;75.14;100517.00;10306490;28;20062;-67
2021/04/18 22:29:28;;;;;;;8.35;7.55;;;;;;;11.13;74.84;100515.69;10315918;28;20054;-66
2021/04/18 22:34:29;;;;;;;7.53;6.82;;;;;;;11.08;74.75;100512.50;10316137;28;20430;-67
2021/04/18 22:39:30;;;;;;;7.88;7.10;;;;;;;11.12;74.60;100525.50;10307320;28;20047;-66
2021/04/18 22:44:31;;;;;;;7.35;6.65;;;;;;;11.04;75.01;100516.41;10307696;28;20059;-67
2021/04/18 22:49:31;;;;;;;7.70;7.00;;;;;;;11.03;74.49;100512.03;10295671;28;20134;-67
2021/04/18 22:54:33;;;;;;;6.88;6.13;;;;;;;11.01;74.46;100519.31;10305004;28;20050;-67
2021/04/18 22:59:34;;;;;;;7.22;6.53;;;;;;;10.90;74.60;100499.69;10313259;28;20570;-67
2021/04/18 23:04:35;;;;;;;6.53;5.93;;;;;;;11.02;74.87;100518.31;10309982;28;20339;-68
2021/04/18 23:09:36;;;;;;;8.07;7.07;;;;;;;10.98;75.00;100523.06;10309596;28;20057;-67